Time;durP1;ratioP1;P1;durP2;ratioP2;P2;SDS_P1;SDS_P2;PMS_P1;PMS_P2;Temp;Humidity;BMP_temperature;BMP_pressure;BME280_temperature;BME280_humidity;BME280_pressure;Samples;Min_cycle;Max_cycle;Signal;HPM_P1;HPM_P2
2021/01/09 00:01:04;;;;;;;123.72;63.98;;;;;;;1.21;82.73;100567.27;1681068;84;25813;-82
2021/01/09 00:03:31;;;;;;;128.47;64.72;;;;;;;1.20;82.71;100566.05;1692757;84;26121;-83
2021/01/09 00:05:59;;;;;;;127.90;63.95;;;;;;;1.16;82.69;100565.48;1698951;84;25407;-82
2021/01/09 00:08:26;;;;;;;130.32;65.00;;;;;;;1.13;82.75;100564.44;1715437;82;27541;-82
2021/01/09 00:10:53;;;;;;;133.40;66.70;;;;;;;1.12;82.81;100562.75;1704357;81;25374;-83
2021/01/09 00:13:21;;;;;;;129.12;62.73;;;;;;;1.09;82.78;100564.82;1710154;82;26213;-82
2021/01/09 00:15:48;;;;;;;128.90;63.10;;;;;;;1.05;82.87;100560.26;1713552;82;25771;-82
2021/01/09 00:18:16;;;;;;;129.87;61.85;;;;;;;1.05;83.03;100560.26;1674151;81;25852;-83
2021/01/09 00:20:43;;;;;;;136.52;66.77;;;;;;;1.02;82.94;100565.80;1678540;84;27529;-83
2021/01/09 00:23:10;;;;;;;132.97;65.30;;;;;;;1.02;83.14;100566.28;1710728;82;25773;-82
2021/01/09 00:25:38;;;;;;;126.12;65.80;;;;;;;1.00;83.15;100565.58;1705029;82;25788;-82
2021/01/09 00:28:05;;;;;;;126.62;67.05;;;;;;;1.02;83.36;100556.58;1704943;82;26127;-83
2021/01/09 00:30:33;;;;;;;124.75;63.70;;;;;;;1.05;83.34;100560.26;1707014;81;26372;-83
2021/01/09 00:33:01;;;;;;;122.02;63.35;;;;;;;1.07;83.33;100558.84;1710384;82;27329;-83
2021/01/09 00:35:28;;;;;;;123.05;65.92;;;;;;;1.08;83.28;100562.66;1705128;83;25826;-83
2021/01/09 00:37:55;;;;;;;121.20;60.88;;;;;;;1.09;83.23;100562.19;1692614;81;26465;-83
2021/01/09 00:40:23;;;;;;;116.55;59.20;;;;;;;1.12;83.30;100566.71;1696573;82;26477;-83
2021/01/09 00:42:50;;;;;;;115.88;59.45;;;;;;;1.16;83.38;100560.69;1696377;81;25914;-83
2021/01/09 00:45:17;;;;;;;121.40;59.38;;;;;;;1.20;83.28;100568.22;1752338;81;27737;-83
2021/01/09 00:47:45;;;;;;;120.02;58.40;;;;;;;1.21;83.15;100571.23;1695906;81;26344;-83
2021/01/09 00:50:12;;;;;;;117.93;58.17;;;;;;;1.18;83.00;100564.03;1694783;83;25870;-82
2021/01/09 00:52:40;;;;;;;119.35;61.75;;;;;;;1.12;82.94;100571.14;1719200;81;25829;-82
2021/01/09 00:55:08;;;;;;;115.60;59.58;;;;;;;1.10;83.15;100569.95;1746965;81;25717;-82
2021/01/09 00:57:35;;;;;;;118.97;60.75;;;;;;;1.10;83.15;100574.39;1721603;82;26822;-82
2021/01/09 01:00:06;;;;;;;122.33;60.70;;;;;;;1.13;83.16;100575.47;1718807;81;25889;-82
2021/01/09 01:02:34;;;;;;;118.02;59.85;;;;;;;1.14;83.19;100575.80;1721707;81;25525;-83
2021/01/09 01:05:01;;;;;;;119.50;60.40;;;;;;;1.15;83.17;100576.17;1748971;81;25878;-82
2021/01/09 01:07:30;;;;;;;114.72;57.83;;;;;;;1.16;83.27;100572.08;1697274;81;26014;-82
2021/01/09 01:09:58;;;;;;;112.57;56.50;;;;;;;1.20;83.23;100572.17;1712379;81;27549;-82
2021/01/09 01:12:25;;;;;;;107.85;52.98;;;;;;;1.21;83.19;100566.42;1748603;81;25827;-82
2021/01/09 01:14:52;;;;;;;110.25;57.33;;;;;;;1.19;83.03;100574.95;1719509;81;25929;-82
2021/01/09 01:17:20;;;;;;;121.92;60.12;;;;;;;1.16;83.04;100573.40;1690159;81;26478;-82
2021/01/09 01:19:47;;;;;;;115.17;60.00;;;;;;;1.12;83.03;100571.98;1710489;81;26271;-82
2021/01/09 01:22:14;;;;;;;115.47;60.10;;;;;;;1.10;83.06;100579.19;1749509;81;27330;-82
2021/01/09 01:24:42;;;;;;;112.32;57.40;;;;;;;1.11;83.20;100579.53;1750349;81;25908;-82
2021/01/09 01:27:09;;;;;;;110.60;55.70;;;;;;;1.13;83.12;100577.62;1699113;82;26083;-82
2021/01/09 01:29:37;;;;;;;112.45;56.37;;;;;;;1.12;83.13;100573.30;1715896;82;26440;-82
2021/01/09 01:32:05;;;;;;;109.90;56.18;;;;;;;1.11;83.15;100572.94;1698260;81;25860;-82
2021/01/09 01:34:32;;;;;;;106.65;55.95;;;;;;;1.12;83.18;100569.34;1751145;81;27538;-83
2021/01/09 01:36:59;;;;;;;120.90;57.53;;;;;;;1.12;83.15;100565.39;1723821;81;25886;-82
2021/01/09 01:39:27;;;;;;;122.58;59.60;;;;;;;1.13;83.20;100570.19;1706912;82;25857;-82
2021/01/09 01:41:57;;;;;;;108.27;55.25;;;;;;;1.15;83.31;100573.53;1726070;82;25851;-81
2021/01/09 01:44:24;;;;;;;116.55;55.78;;;;;;;1.18;83.25;100569.30;1742838;81;25731;-82
2021/01/09 01:46:52;;;;;;;110.22;55.23;;;;;;;1.16;83.08;100573.40;1711657;81;27726;-82
2021/01/09 01:49:19;;;;;;;112.42;56.18;;;;;;;1.13;83.06;100560.48;1705352;81;26780;-82
2021/01/09 01:51:51;;;;;;;112.62;55.15;;;;;;;1.12;83.00;100556.63;1718759;81;25860;-82
2021/01/09 01:54:21;;;;;;;115.57;54.13;;;;;;;1.12;83.10;100556.16;1726054;81;25818;-83
2021/01/09 01:56:53;;;;;;;110.15;56.25;;;;;;;1.09;83.00;100554.27;1700729;81;25863;-82
2021/01/09 01:59:20;;;;;;;112.15;55.58;;;;;;;1.06;83.09;100548.77;1726106;81;28573;-82
2021/01/09 02:01:50;;;;;;;111.35;54.58;;;;;;;1.07;83.15;100549.60;1752068;81;25725;-82
2021/01/09 02:04:17;;;;;;;113.57;55.50;;;;;;;1.05;83.14;100550.22;1750822;81;25848;-82
2021/01/09 02:06:48;;;;;;;112.55;55.63;;;;;;;1.04;83.16;100542.78;1721139;81;26486;-82
2021/01/09 02:09:25;;;;;;;107.58;53.38;;;;;;;1.07;83.26;100545.14;1723087;82;25845;-82
2021/01/09 02:12:14;;;;;;;103.83;53.90;;;;;;;1.05;83.06;100547.07;1748330;81;28290;-82
2021/01/09 02:14:59;;;;;;;112.80;56.50;;;;;;;0.98;83.20;100527.47;1749803;81;25776;-82
2021/01/09 02:17:28;;;;;;;104.85;54.15;;;;;;;1.06;83.27;100549.23;1723595;81;25893;-82
2021/01/09 02:20:01;;;;;;;102.40;51.33;;;;;;;1.06;83.32;100554.03;1705812;81;25789;-82
2021/01/09 02:22:33;;;;;;;102.53;51.08;;;;;;;1.09;83.31;100550.31;1700883;81;25977;-82
2021/01/09 02:25:00;;;;;;;110.45;54.85;;;;;;;1.10;83.23;100550.65;1749602;81;27764;-82
2021/01/09 02:27:28;;;;;;;112.80;55.43;;;;;;;1.09;83.21;100551.63;1716499;82;25917;-82
2021/01/09 02:30:13;;;;;;;107.43;52.75;;;;;;;1.08;83.10;100553.42;1696195;82;25861;-82
2021/01/09 02:32:58;;;;;;;104.40;52.65;;;;;;;1.06;83.11;100553.19;1724262;82;26422;-82
2021/01/09 02:35:28;;;;;;;106.47;52.30;;;;;;;1.04;83.16;100561.72;1719697;82;26097;-82
2021/01/09 02:37:57;;;;;;;103.02;53.33;;;;;;;1.03;83.20;100563.98;1710008;82;27414;-82
2021/01/09 02:40:25;;;;;;;95.45;50.73;;;;;;;1.00;83.14;100566.89;1737694;81;25919;-82
2021/01/09 02:42:52;;;;;;;98.52;50.48;;;;;;;0.98;83.15;100560.91;1688714;82;26476;-82
2021/01/09 02:45:20;;;;;;;107.37;54.15;;;;;;;0.94;83.15;100560.81;1671618;82;25912;-82
2021/01/09 02:47:47;;;;;;;112.70;53.23;;;;;;;0.92;83.23;100558.27;1725161;82;25407;-82
2021/01/09 02:50:15;;;;;;;118.77;56.88;;;;;;;0.90;83.24;100562.03;1700339;82;28466;-82
2021/01/09 02:52:42;;;;;;;105.70;54.30;;;;;;;0.90;83.37;100556.75;1653296;81;25943;-82
2021/01/09 02:55:10;;;;;;;113.15;53.00;;;;;;;0.93;83.46;100553.84;1706065;82;26595;-82
2021/01/09 02:57:37;;;;;;;111.62;54.03;;;;;;;0.94;83.40;100555.53;1665193;82;25894;-82
2021/01/09 03:00:06;;;;;;;101.53;50.60;;;;;;;0.95;83.42;100558.04;1721173;82;25821;-82
2021/01/09 03:02:34;;;;;;;110.12;53.75;;;;;;;0.97;83.38;100553.95;1688696;81;26755;-82
2021/01/09 03:05:01;;;;;;;105.17;54.38;;;;;;;0.98;83.54;100558.27;1719953;81;25971;-81
2021/01/09 03:07:28;;;;;;;106.27;52.70;;;;;;;1.01;83.64;100558.84;1741883;81;25866;-82
2021/01/09 03:09:56;;;;;;;107.22;54.45;;;;;;;1.04;83.50;100558.60;1739662;82;25859;-82
2021/01/09 03:12:23;;;;;;;104.43;52.03;;;;;;;1.03;83.38;100558.70;1667942;82;25781;-82
2021/01/09 03:14:52;;;;;;;111.68;55.58;;;;;;;1.03;83.41;100563.51;1691300;82;27702;-82
2021/01/09 03:17:19;;;;;;;96.67;50.03;;;;;;;1.04;83.45;100565.20;1712549;82;25993;-82
2021/01/09 03:19:46;;;;;;;110.90;55.17;;;;;;;1.04;83.32;100563.03;1725264;82;25834;-82
2021/01/09 03:22:15;;;;;;;106.30;52.62;;;;;;;0.99;83.25;100567.37;1657470;84;26787;-82
2021/01/09 03:24:42;;;;;;;98.95;52.80;;;;;;;0.99;83.32;100565.20;1706838;82;26679;-81
2021/01/09 03:27:09;;;;;;;105.25;52.25;;;;;;;0.98;83.29;100559.59;1688813;82;27746;-81
2021/01/09 03:29:37;;;;;;;109.05;52.23;;;;;;;0.95;83.30;100555.41;1698906;83;25796;-82
2021/01/09 03:32:05;;;;;;;102.12;50.98;;;;;;;0.95;83.33;100553.23;1684787;82;25816;-82
2021/01/09 03:34:32;;;;;;;95.83;50.20;;;;;;;0.94;83.33;100552.90;1678046;81;25866;-81
2021/01/09 03:36:59;;;;;;;106.83;52.58;;;;;;;0.91;83.30;100547.86;1683854;81;26204;-82
2021/01/09 03:39:27;;;;;;;109.80;54.65;;;;;;;0.88;83.35;100554.22;1675865;83;27353;-82
2021/01/09 03:41:54;;;;;;;105.30;54.13;;;;;;;0.84;83.34;100559.39;1701884;83;25538;-83
2021/01/09 03:44:21;;;;;;;101.12;50.88;;;;;;;0.86;83.55;100556.15;1649740;84;25855;-82
2021/01/09 03:46:49;;;;;;;106.37;54.30;;;;;;;0.87;83.53;100559.16;1693693;82;26685;-81
2021/01/09 03:49:16;;;;;;;103.78;53.33;;;;;;;0.88;83.66;100558.17;1741433;81;26559;-82
2021/01/09 03:51:43;;;;;;;106.00;53.42;;;;;;;0.91;83.71;100563.21;1716288;81;28412;-82
2021/01/09 03:54:11;;;;;;;105.10;53.45;;;;;;;0.90;83.57;100563.34;1685549;82;25808;-82
2021/01/09 03:56:38;;;;;;;101.38;50.58;;;;;;;0.87;83.62;100555.67;1711957;82;25381;-81
2021/01/09 03:59:05;;;;;;;113.72;54.00;;;;;;;0.86;83.58;100564.53;1669208;82;25816;-82
2021/01/09 04:01:33;;;;;;;103.07;51.02;;;;;;;0.82;83.63;100565.75;1675769;82;25945;-82
2021/01/09 04:04:01;;;;;;;109.87;52.75;;;;;;;0.82;83.65;100566.59;1657603;82;28650;-82
2021/01/09 04:06:28;;;;;;;114.75;57.05;;;;;;;0.81;83.63;100564.09;1720478;82;25925;-82
2021/01/09 04:08:55;;;;;;;108.85;55.78;;;;;;;0.81;83.74;100567.58;1712680;82;26537;-82
2021/01/09 04:11:23;;;;;;;114.03;55.83;;;;;;;0.78;83.77;100564.70;1720957;82;25835;-82
2021/01/09 04:13:50;;;;;;;107.43;53.10;;;;;;;0.81;83.83;100568.89;1683547;81;25918;-81
2021/01/09 04:16:17;;;;;;;106.92;53.35;;;;;;;0.81;83.75;100574.17;1702349;81;27729;-81
2021/01/09 04:18:45;;;;;;;113.08;56.08;;;;;;;0.78;83.72;100567.34;1713701;81;26422;-81
2021/01/09 04:21:12;;;;;;;117.93;54.03;;;;;;;0.80;83.80;100576.43;1733455;81;25840;-81
2021/01/09 04:23:39;;;;;;;115.62;53.70;;;;;;;0.79;83.70;100568.19;1692998;81;26510;-81
2021/01/09 04:26:15;;;;;;;113.03;54.90;;;;;;;0.73;83.70;100573.45;1668080;82;25903;-81
2021/01/09 04:28:42;;;;;;;108.37;51.55;;;;;;;0.69;83.74;100573.83;1700760;82;27363;-81
2021/01/09 04:31:15;;;;;;;109.00;50.78;;;;;;;0.67;83.84;100580.55;1727833;82;26152;-81
2021/01/09 04:33:42;;;;;;;112.83;54.83;;;;;;;0.67;83.93;100577.91;1695299;82;25751;-80
2021/01/09 04:36:10;;;;;;;103.27;51.40;;;;;;;0.68;84.04;100581.39;1695980;82;26075;-81
2021/01/09 04:38:37;;;;;;;95.97;47.60;;;;;;;0.68;83.96;100577.44;1744119;81;25919;-80
2021/01/09 04:41:05;;;;;;;121.65;58.33;;;;;;;0.67;84.05;100579.23;1739580;82;27523;-80
2021/01/09 04:43:32;;;;;;;116.75;55.25;;;;;;;0.65;84.03;100576.36;1693992;83;25759;-81
2021/01/09 04:46:01;;;;;;;121.92;59.23;;;;;;;0.65;84.09;100578.99;1682457;83;25687;-80
2021/01/09 04:48:29;;;;;;;122.10;59.73;;;;;;;0.63;84.17;100576.48;1700113;82;25814;-80
2021/01/09 04:50:57;;;;;;;119.15;56.85;;;;;;;0.62;84.17;100587.17;1750474;81;25819;-81
2021/01/09 04:53:26;;;;;;;124.82;60.95;;;;;;;0.61;84.22;100580.20;1695319;81;27532;-82
2021/01/09 04:55:53;;;;;;;118.22;58.68;;;;;;;0.60;84.30;100583.31;1738061;81;25796;-81
2021/01/09 04:58:21;;;;;;;125.62;61.30;;;;;;;0.61;84.38;100583.69;1695444;83;25851;-81
2021/01/09 05:00:53;;;;;;;101.18;47.53;;;;;;;0.65;84.43;100594.34;1739731;82;25837;-80
2021/01/09 05:03:17;;;;;;;128.02;59.10;;;;;;;0.64;84.30;100594.47;1690470;82;25860;-81
2021/01/09 05:05:45;;;;;;;135.65;66.35;;;;;;;0.61;84.33;100589.43;1669888;82;27651;-81
2021/01/09 05:08:12;;;;;;;127.02;63.65;;;;;;;0.62;84.48;100593.76;1721301;82;25971;-82
2021/01/09 05:10:40;;;;;;;129.65;61.42;;;;;;;0.66;84.55;100593.86;1720777;82;25874;-82
2021/01/09 05:13:07;;;;;;;133.80;66.02;;;;;;;0.65;84.37;100597.45;1716264;82;25817;-83
2021/01/09 05:15:39;;;;;;;117.85;57.10;;;;;;;0.65;84.47;100598.29;1692222;82;25427;-83
2021/01/09 05:18:07;;;;;;;136.32;64.12;;;;;;;0.68;84.50;100594.06;1700992;83;27345;-83
2021/01/09 05:20:35;;;;;;;137.90;62.58;;;;;;;0.68;84.44;100600.66;1727121;82;26181;-83
2021/01/09 05:23:03;;;;;;;122.37;56.23;;;;;;;0.70;84.59;100600.09;1685571;83;25625;-83
2021/01/09 05:25:30;;;;;;;131.75;60.05;;;;;;;0.71;84.42;100599.11;1679179;84;26411;-83
2021/01/09 05:27:59;;;;;;;138.00;64.37;;;;;;;0.67;84.42;100609.55;1730053;81;25839;-83
2021/01/09 05:30:27;;;;;;;114.80;50.75;;;;;;;0.71;84.58;100604.85;1719272;82;27590;-82
2021/01/09 05:32:54;;;;;;;141.65;65.90;;;;;;;0.74;84.45;100610.73;1667830;83;26267;-82
2021/01/09 05:35:22;;;;;;;146.18;67.97;;;;;;;0.70;84.43;100614.58;1692643;83;25856;-82
2021/01/09 05:37:50;;;;;;;143.78;69.05;;;;;;;0.74;84.58;100619.11;1686870;83;25806;-83
2021/01/09 05:40:18;;;;;;;140.45;61.40;;;;;;;0.74;84.53;100619.11;1741658;81;25828;-82
2021/01/09 05:42:45;;;;;;;144.87;64.70;;;;;;;0.76;84.52;100615.88;1653506;83;28506;-82
2021/01/09 05:45:14;;;;;;;141.97;65.37;;;;;;;0.75;84.53;100625.58;1678626;81;26047;-83
2021/01/09 05:47:44;;;;;;;140.03;65.87;;;;;;;0.74;84.51;100619.96;1671786;84;26416;-82
2021/01/09 05:50:12;;;;;;;133.25;64.27;;;;;;;0.72;84.49;100613.98;1681780;83;26203;-82
2021/01/09 05:52:40;;;;;;;139.90;62.58;;;;;;;0.69;84.46;100615.53;1686533;82;25852;-82
2021/01/09 05:55:08;;;;;;;151.72;71.92;;;;;;;0.67;84.64;100620.56;1709205;82;28829;-82
2021/01/09 05:57:36;;;;;;;165.55;80.80;;;;;;;0.66;84.67;100621.03;1711442;82;26148;-82
2021/01/09 06:00:12;;;;;;;165.92;78.85;;;;;;;0.67;84.72;100620.56;1738934;82;25759;-83
2021/01/09 06:03:03;;;;;;;182.82;94.50;;;;;;;0.68;84.80;100627.02;1689214;82;25802;-82
2021/01/09 06:05:45;;;;;;;;;;;;;;;0.69;84.83;100627.39;1708833;83;25404;-82
2021/01/09 06:08:21;;;;;;;161.07;74.47;;;;;;;0.70;84.84;100625.12;1707142;83;27420;-82
2021/01/09 06:10:52;;;;;;;149.82;72.40;;;;;;;0.69;84.87;100627.86;1657099;84;26342;-83
2021/01/09 06:13:20;;;;;;;160.93;76.17;;;;;;;0.71;84.87;100631.22;1707784;83;25932;-82
2021/01/09 06:15:49;;;;;;;177.25;84.83;;;;;;;0.71;84.93;100638.65;1714344;81;25882;-82
2021/01/09 06:18:16;;;;;;;149.93;73.10;;;;;;;0.73;84.90;100634.09;1719437;82;25769;-83
2021/01/09 06:20:47;;;;;;;164.62;79.75;;;;;;;0.76;84.90;100643.08;1703712;83;27534;-82
2021/01/09 06:23:16;;;;;;;133.85;62.50;;;;;;;0.74;84.83;100643.69;1710334;81;27146;-82
2021/01/09 06:25:43;;;;;;;141.55;64.10;;;;;;;0.72;84.77;100645.61;1711327;81;26493;-82
2021/01/09 06:28:13;;;;;;;145.00;66.92;;;;;;;0.69;84.83;100651.59;1695152;83;25883;-82
2021/01/09 06:30:43;;;;;;;128.75;56.85;;;;;;;0.68;84.92;100649.42;1726572;82;26225;-82
2021/01/09 06:33:14;;;;;;;134.37;60.75;;;;;;;0.66;84.90;100647.39;1708534;83;27549;-82
2021/01/09 06:35:44;;;;;;;128.62;58.20;;;;;;;0.65;85.01;100654.12;1719964;82;26326;-83
2021/01/09 06:38:12;;;;;;;148.95;65.37;;;;;;;0.64;85.03;100659.05;1718877;81;26414;-82
2021/01/09 06:40:40;;;;;;;140.05;62.33;;;;;;;0.62;85.03;100663.60;1732905;81;25846;-83
2021/01/09 06:43:08;;;;;;;133.45;60.20;;;;;;;0.62;85.05;100660.46;1685431;81;25912;-82
2021/01/09 06:45:35;;;;;;;115.85;50.38;;;;;;;0.60;85.09;100658.91;1722752;82;27539;-83
2021/01/09 06:48:06;;;;;;;149.70;67.45;;;;;;;0.58;85.26;100659.51;1725789;82;26233;-83
2021/01/09 06:50:34;;;;;;;161.50;69.58;;;;;;;0.57;85.23;100661.80;1717848;81;25800;-80
2021/01/09 06:53:04;;;;;;;169.15;73.47;;;;;;;0.58;85.32;100660.83;1718014;81;25836;-80
2021/01/09 06:55:43;;;;;;;165.37;73.50;;;;;;;0.62;85.58;100664.42;1725266;81;25934;-80
2021/01/09 06:58:16;;;;;;;157.15;69.67;;;;;;;0.60;85.31;100670.30;1716465;81;26507;-80
2021/01/09 07:00:43;;;;;;;135.25;58.63;;;;;;;0.57;85.31;100669.23;1718709;81;26058;-80
2021/01/09 07:03:16;;;;;;;142.20;61.98;;;;;;;0.56;85.44;100670.18;1736540;81;25391;-80
2021/01/09 07:05:49;;;;;;;143.68;67.30;;;;;;;0.53;85.39;100677.03;1709367;81;25832;-79
2021/01/09 07:08:32;;;;;;;150.70;67.22;;;;;;;0.52;85.52;100681.92;1736731;81;25760;-80
2021/01/09 07:11:05;;;;;;;160.88;69.82;;;;;;;0.56;85.58;100678.56;1720530;81;27345;-79
2021/01/09 07:13:33;;;;;;;178.27;74.70;;;;;;;0.60;85.72;100682.16;1732599;81;25911;-81
2021/01/09 07:16:10;;;;;;;158.03;66.77;;;;;;;0.60;85.59;100672.08;1688850;83;25617;-82
2021/01/09 07:18:44;;;;;;;215.18;97.05;;;;;;;0.61;85.58;100673.77;1717410;81;26245;-79
2021/01/09 07:21:12;;;;;;;181.87;78.97;;;;;;;0.60;85.64;100674.72;1684453;81;25434;-79
2021/01/09 07:23:44;;;;;;;161.85;69.80;;;;;;;0.63;85.62;100675.80;1713911;82;27682;-79
2021/01/09 07:26:13;;;;;;;151.47;65.65;;;;;;;0.67;85.64;100682.51;1744667;81;25589;-81
2021/01/09 07:28:42;;;;;;;146.90;61.95;;;;;;;0.67;85.57;100689.94;1730879;81;25960;-81
2021/01/09 07:31:10;;;;;;;159.07;67.10;;;;;;;0.69;85.65;100696.41;1708262;81;26287;-80
2021/01/09 07:33:38;;;;;;;139.92;61.77;;;;;;;0.71;85.70;100690.53;1736234;81;25907;-81
2021/01/09 07:36:06;;;;;;;161.92;67.20;;;;;;;0.69;85.51;100691.98;1692176;81;28441;-79
2021/01/09 07:38:47;;;;;;;154.32;67.90;;;;;;;0.64;85.46;100691.48;1726648;81;26431;-79
2021/01/09 07:41:36;;;;;;;140.07;61.68;;;;;;;0.65;85.63;100697.14;1704023;83;25746;-79
2021/01/09 07:46:57;;;;;;;159.15;68.22;;;;;;;0.73;85.67;100693.41;1835192;77;25755;-80
2021/01/09 07:49:34;;;;;;;137.10;58.83;;;;;;;0.67;85.73;100695.22;1737981;80;25875;-80
2021/01/09 07:52:05;;;;;;;157.05;63.23;;;;;;;0.67;85.61;100702.28;1742795;80;27513;-80
2021/01/09 07:54:40;;;;;;;;;;;;;;;0.65;85.72;100693.66;1763412;80;25956;-80
2021/01/09 07:57:24;;;;;;;151.15;61.18;;;;;;;0.68;85.80;100703.46;1761297;80;27258;-80
2021/01/09 08:02:44;;;;;;;146.93;58.48;;;;;;;0.72;85.73;100696.17;1836812;77;25765;-80
2021/01/09 08:08:00;;;;;;;129.20;57.27;;;;;;;0.71;85.89;100697.96;1844939;77;25732;-80
2021/01/09 08:10:34;;;;;;;133.22;56.42;;;;;;;0.69;85.95;100706.47;1707129;81;25921;-80
2021/01/09 08:13:08;;;;;;;136.30;57.30;;;;;;;0.70;85.90;100709.95;1749727;80;27525;-80
2021/01/09 08:15:37;;;;;;;165.82;71.20;;;;;;;0.68;85.72;100710.05;1730177;81;26440;-81
2021/01/09 08:18:07;;;;;;;144.13;58.63;;;;;;;0.65;85.78;100709.00;1732108;81;25790;-80
2021/01/09 08:20:35;;;;;;;144.25;62.80;;;;;;;0.66;85.91;100705.89;1705166;81;25805;-79
2021/01/09 08:23:04;;;;;;;140.00;59.20;;;;;;;0.67;85.92;100705.76;1691035;81;25967;-79
2021/01/09 08:25:42;;;;;;;150.43;65.57;;;;;;;0.66;85.88;100707.20;1742534;81;26594;-79
2021/01/09 08:28:09;;;;;;;132.60;57.20;;;;;;;0.64;85.93;100714.40;1760404;80;26165;-79
2021/01/09 08:30:39;;;;;;;141.28;62.03;;;;;;;0.64;85.98;100712.58;1702449;81;25888;-80
2021/01/09 08:33:11;;;;;;;149.50;60.83;;;;;;;0.64;86.02;100714.40;1716587;81;25961;-80
2021/01/09 08:35:45;;;;;;;108.85;47.20;;;;;;;0.64;86.13;100712.58;1713581;81;25862;-82
2021/01/09 08:38:13;;;;;;;129.65;55.78;;;;;;;0.66;86.12;100717.75;1734203;81;27555;-79
2021/01/09 08:40:44;;;;;;;145.05;61.98;;;;;;;0.65;86.16;100715.59;1726326;81;25790;-79
2021/01/09 08:43:14;;;;;;;154.05;62.73;;;;;;;0.67;86.16;100720.26;1744489;80;25719;-79
2021/01/09 08:45:53;;;;;;;141.00;60.20;;;;;;;0.70;86.27;100720.03;1778733;80;26316;-79
2021/01/09 08:48:27;;;;;;;124.30;52.62;;;;;;;0.73;86.14;100721.55;1753061;81;25760;-80
2021/01/09 08:51:14;;;;;;;125.72;58.08;;;;;;;0.71;86.18;100723.48;1703900;81;27547;-79
2021/01/09 08:54:02;;;;;;;132.93;54.95;;;;;;;0.74;86.18;100728.52;1742109;81;26478;-79
2021/01/09 08:56:32;;;;;;;130.80;54.33;;;;;;;0.73;86.14;100738.22;1760366;81;25850;-79
2021/01/09 08:59:10;;;;;;;126.00;54.88;;;;;;;0.74;86.18;100740.38;1753954;81;25809;-79
2021/01/09 09:01:51;;;;;;;128.23;51.53;;;;;;;0.77;86.26;100741.45;1704433;81;25895;-79
2021/01/09 09:04:22;;;;;;;140.57;54.13;;;;;;;0.79;86.25;100739.05;1723388;81;27640;-82
2021/01/09 09:07:03;;;;;;;139.43;54.05;;;;;;;0.80;86.20;100741.22;1736103;81;26002;-79
2021/01/09 09:09:33;;;;;;;158.32;60.17;;;;;;;0.84;86.46;100745.28;1733123;81;25877;-79
2021/01/09 09:12:01;;;;;;;127.22;55.58;;;;;;;0.91;86.46;100745.64;1703228;82;25768;-81
2021/01/09 09:14:29;;;;;;;128.47;54.05;;;;;;;0.93;86.30;100739.28;1719841;82;25427;-80
2021/01/09 09:17:00;;;;;;;131.72;51.63;;;;;;;0.92;86.18;100742.05;1718739;81;27517;-81
2021/01/09 09:19:36;;;;;;;151.97;60.43;;;;;;;0.91;86.13;100743.00;1751839;81;26123;-81
2021/01/09 09:22:05;;;;;;;149.27;60.63;;;;;;;0.92;86.20;100741.55;1750211;81;25427;-80
2021/01/09 09:24:44;;;;;;;147.53;59.65;;;;;;;0.97;86.35;100739.87;1704321;81;25873;-79
2021/01/09 09:27:25;;;;;;;124.60;51.37;;;;;;;0.99;86.16;100744.54;1751359;81;26379;-79
2021/01/09 09:30:11;;;;;;;143.05;58.55;;;;;;;1.00;86.25;100737.84;1745097;81;27741;-79
2021/01/09 09:32:43;;;;;;;133.18;54.70;;;;;;;0.97;86.07;100743.35;1724988;81;26118;-79
2021/01/09 09:35:28;;;;;;;150.95;56.45;;;;;;;0.98;86.20;100738.45;1726477;81;26401;-79
2021/01/09 09:38:02;;;;;;;181.55;71.53;;;;;;;0.99;86.19;100741.91;1728536;81;25875;-78
2021/01/09 09:40:33;;;;;;;133.40;53.17;;;;;;;0.98;86.26;100734.50;1749923;81;25814;-79
2021/01/09 09:43:20;;;;;;;161.30;64.47;;;;;;;1.00;86.29;100740.48;1702811;81;27541;-79
2021/01/09 09:46:05;;;;;;;155.95;61.70;;;;;;;1.03;86.27;100734.09;1709141;81;26663;-79
2021/01/09 09:48:37;;;;;;;163.25;64.82;;;;;;;1.04;86.19;100734.47;1748472;81;26206;-79
2021/01/09 09:51:10;;;;;;;134.52;51.80;;;;;;;1.05;86.30;100730.38;1751341;81;26628;-78
2021/01/09 09:53:40;;;;;;;138.22;52.00;;;;;;;1.08;86.25;100727.98;1679227;82;26149;-79
2021/01/09 09:56:22;;;;;;;135.70;53.40;;;;;;;1.11;86.25;100729.89;1730052;81;27535;-79
2021/01/09 09:59:06;;;;;;;122.67;48.75;;;;;;;1.09;86.09;100726.53;1754272;81;26068;-78
2021/01/09 10:01:35;;;;;;;116.22;47.62;;;;;;;1.09;86.09;100729.17;1753373;81;25779;-79
2021/01/09 10:04:14;;;;;;;131.50;52.03;;;;;;;1.11;86.09;100723.80;1725987;81;26439;-79
2021/01/09 10:06:42;;;;;;;122.70;49.60;;;;;;;1.15;86.12;100722.11;1735987;79;25908;-79
2021/01/09 10:09:18;;;;;;;134.07;51.50;;;;;;;1.17;85.92;100727.25;1768614;79;27060;-79
2021/01/09 10:11:49;;;;;;;125.15;49.25;;;;;;;1.18;85.93;100727.59;1785117;79;25933;-79
2021/01/09 10:14:19;;;;;;;127.02;48.42;;;;;;;1.19;86.05;100728.81;1742291;79;25825;-79
2021/01/09 10:16:47;;;;;;;135.12;52.95;;;;;;;1.23;85.93;100730.71;1783063;79;25815;-79
2021/01/09 10:19:16;;;;;;;127.00;46.95;;;;;;;1.25;85.92;100732.27;1764682;79;25781;-79
2021/01/09 10:21:44;;;;;;;145.65;57.83;;;;;;;1.26;85.69;100728.65;1791234;79;27587;-79
2021/01/09 10:24:12;;;;;;;140.60;56.25;;;;;;;1.26;85.96;100735.25;1718249;79;25876;-79
2021/01/09 10:26:41;;;;;;;127.65;52.70;;;;;;;1.29;85.78;100735.02;1780371;79;26536;-79
2021/01/09 10:29:10;;;;;;;121.55;48.00;;;;;;;1.29;85.68;100733.69;1793789;79;26178;-79
2021/01/09 10:31:39;;;;;;;123.75;48.68;;;;;;;1.29;85.68;100732.37;1768490;79;25829;-79
2021/01/09 10:34:09;;;;;;;128.72;48.90;;;;;;;1.30;85.83;100733.22;1762224;79;27642;-79
2021/01/09 10:36:38;;;;;;;126.97;49.60;;;;;;;1.33;85.86;100735.59;1745230;80;25991;-79
2021/01/09 10:39:08;;;;;;;130.03;49.65;;;;;;;1.35;85.83;100727.06;1773063;79;25783;-79
2021/01/09 10:41:36;;;;;;;127.45;64.42;;;;;;;1.38;85.78;100728.15;1785389;79;26377;-79
2021/01/09 10:44:05;;;;;;;120.92;52.13;;;;;;;1.38;85.75;100722.88;1774410;79;25591;-79
2021/01/09 10:46:33;;;;;;;122.80;49.23;;;;;;;1.36;85.71;100724.33;1742126;79;27539;-79
2021/01/09 10:49:01;;;;;;;111.88;48.58;;;;;;;1.39;85.78;100726.69;1764766;79;25762;-79
2021/01/09 10:51:32;;;;;;;107.90;46.85;;;;;;;1.41;85.75;100727.41;1789749;79;25748;-79
2021/01/09 10:54:01;;;;;;;;;;;;;;;1.40;85.70;100724.42;1748390;79;25698;-79
2021/01/09 10:56:28;;;;;;;111.42;44.60;;;;;;;1.44;85.79;100727.17;1781510;79;25598;-79
2021/01/09 10:58:56;;;;;;;110.65;45.23;;;;;;;1.43;85.65;100725.98;1766908;79;27510;-80
2021/01/09 11:01:23;;;;;;;117.37;48.28;;;;;;;1.42;85.55;100734.84;1765669;79;25893;-79
2021/01/09 11:03:51;;;;;;;116.95;48.10;;;;;;;1.41;85.59;100729.23;1753526;79;25847;-79
2021/01/09 11:06:22;;;;;;;95.90;39.55;;;;;;;1.40;85.55;100723.58;1770049;79;25968;-79
2021/01/09 11:08:50;;;;;;;116.35;49.80;;;;;;;1.39;85.64;100734.61;1775188;78;26171;-79
2021/01/09 11:11:19;;;;;;;124.90;51.02;;;;;;;1.37;85.70;100724.66;1803349;78;27520;-80
2021/01/09 11:13:49;;;;;;;118.75;50.45;;;;;;;1.37;85.72;100723.81;1748863;78;26188;-80
2021/01/09 11:16:24;;;;;;;145.77;63.95;;;;;;;1.38;85.68;100727.67;1770646;78;25831;-79
2021/01/09 11:18:52;;;;;;;121.13;53.78;;;;;;;1.41;85.74;100725.27;1746885;78;25877;-80
2021/01/09 11:21:20;;;;;;;137.32;57.25;;;;;;;1.40;85.65;100723.58;1775514;78;25896;-80
2021/01/09 11:23:48;;;;;;;116.88;52.05;;;;;;;1.40;85.66;100725.75;1750575;78;27675;-80
2021/01/09 11:26:26;;;;;;;132.97;65.28;;;;;;;1.41;85.72;100728.72;1779271;78;25857;-79
2021/01/09 11:28:55;;;;;;;190.22;95.47;;;;;;;1.41;85.64;100731.36;1779773;79;25840;-79
2021/01/09 11:31:24;;;;;;;115.67;54.05;;;;;;;1.40;85.73;100727.54;1776245;78;26114;-79